sensor_id;sensor_type;location;lat;lon;timestamp;pressure;altitude;pressure_sealevel;temperature;humidity
55317;BME280;41178;48.956;8.130;2023-04-27T00:02:36;99580.81;;;10.56;43.31
55317;BME280;41178;48.956;8.130;2023-04-27T00:07:42;99500.28;;;9.63;44.82
55317;BME280;41178;48.956;8.130;2023-04-27T00:12:43;99604.91;;;10.93;43.30
55317;BME280;41178;48.956;8.130;2023-04-27T00:17:45;99529.03;;;9.76;44.54
55317;BME280;41178;48.956;8.130;2023-04-27T00:22:47;99585.13;;;10.21;44.20
55317;BME280;41178;48.956;8.130;2023-04-27T00:27:49;99535.38;;;9.75;44.83
55317;BME280;41178;48.956;8.130;2023-04-27T00:32:50;99546.44;;;9.72;45.00
55317;BME280;41178;48.956;8.130;2023-04-27T00:37:53;99571.50;;;10.15;44.91
55317;BME280;41178;48.956;8.130;2023-04-27T00:42:55;99536.47;;;9.36;45.54
55317;BME280;41178;48.956;8.130;2023-04-27T00:47:57;99557.69;;;9.52;45.46
55317;BME280;41178;48.956;8.130;2023-04-27T00:52:59;99445.06;;;7.88;48.15
55317;BME280;41178;48.956;8.130;2023-04-27T00:58:01;99549.34;;;8.48;47.74
55317;BME280;41178;48.956;8.130;2023-04-27T01:03:03;99524.13;;;7.96;48.26
55317;BME280;41178;48.956;8.130;2023-04-27T01:08:05;99472.59;;;7.16;49.22
55317;BME280;41178;48.956;8.130;2023-04-27T01:13:06;99553.34;;;7.65;48.70
55317;BME280;41178;48.956;8.130;2023-04-27T01:18:08;99546.22;;;7.41;49.14
55317;BME280;41178;48.956;8.130;2023-04-27T01:23:14;99573.66;;;7.58;48.85
55317;BME280;41178;48.956;8.130;2023-04-27T01:28:17;99584.31;;;8.22;47.98
55317;BME280;41178;48.956;8.130;2023-04-27T01:33:19;99582.97;;;7.70;48.70
55317;BME280;41178;48.956;8.130;2023-04-27T01:38:21;99585.31;;;7.65;48.59
55317;BME280;41178;48.956;8.130;2023-04-27T01:43:24;99584.84;;;7.36;49.11
55317;BME280;41178;48.956;8.130;2023-04-27T01:48:26;99584.53;;;7.31;49.14
55317;BME280;41178;48.956;8.130;2023-04-27T01:53:28;99600.59;;;7.87;47.92
55317;BME280;41178;48.956;8.130;2023-04-27T01:58:30;99623.09;;;8.24;46.47
55317;BME280;41178;48.956;8.130;2023-04-27T02:03:32;99641.28;;;8.21;46.42
55317;BME280;41178;48.956;8.130;2023-04-27T02:08:34;99648.34;;;7.97;46.87
55317;BME280;41178;48.956;8.130;2023-04-27T02:13:36;99652.56;;;7.59;47.02
55317;BME280;41178;48.956;8.130;2023-04-27T02:18:38;99656.38;;;7.64;46.83
55317;BME280;41178;48.956;8.130;2023-04-27T02:23:40;99671.66;;;8.03;46.45
55317;BME280;41178;48.956;8.130;2023-04-27T02:28:42;99623.06;;;6.78;48.20
55317;BME280;41178;48.956;8.130;2023-04-27T02:33:44;99685.66;;;7.81;46.67
55317;BME280;41178;48.956;8.130;2023-04-27T02:38:45;99658.53;;;7.03;48.33
55317;BME280;41178;48.956;8.130;2023-04-27T02:43:49;99678.34;;;7.42;48.07
55317;BME280;41178;48.956;8.130;2023-04-27T02:48:50;99665.16;;;7.81;47.80
55317;BME280;41178;48.956;8.130;2023-04-27T02:53:52;99681.03;;;7.58;47.78
55317;BME280;41178;48.956;8.130;2023-04-27T02:58:54;99694.31;;;7.74;47.51
55317;BME280;41178;48.956;8.130;2023-04-27T03:03:56;99715.47;;;7.84;46.79
55317;BME280;41178;48.956;8.130;2023-04-27T03:08:58;99720.28;;;7.64;47.21
55317;BME280;41178;48.956;8.130;2023-04-27T03:14:00;99682.81;;;7.08;47.40
55317;BME280;41178;48.956;8.130;2023-04-27T03:19:02;99713.97;;;7.24;48.01
55317;BME280;41178;48.956;8.130;2023-04-27T03:24:04;99724.81;;;7.97;47.22
55317;BME280;41178;48.956;8.130;2023-04-27T03:29:06;99736.28;;;7.89;47.54
55317;BME280;41178;48.956;8.130;2023-04-27T03:34:07;99731.13;;;7.87;47.40
55317;BME280;41178;48.956;8.130;2023-04-27T03:39:09;99743.56;;;7.29;47.87
55317;BME280;41178;48.956;8.130;2023-04-27T03:44:11;99747.09;;;7.54;47.29
55317;BME280;41178;48.956;8.130;2023-04-27T03:49:13;99745.94;;;7.65;47.45
55317;BME280;41178;48.956;8.130;2023-04-27T03:54:14;99750.56;;;8.21;46.37
55317;BME280;41178;48.956;8.130;2023-04-27T03:59:16;99763.91;;;8.04;46.79
55317;BME280;41178;48.956;8.130;2023-04-27T04:04:18;99771.31;;;8.58;45.39
55317;BME280;41178;48.956;8.130;2023-04-27T04:09:20;99808.06;;;8.15;45.68
55317;BME280;41178;48.956;8.130;2023-04-27T04:14:24;99819.00;;;8.53;44.29
55317;BME280;41178;48.956;8.130;2023-04-27T04:19:25;99818.22;;;8.11;45.25
55317;BME280;41178;48.956;8.130;2023-04-27T04:24:27;99818.84;;;8.55;45.03
55317;BME280;41178;48.956;8.130;2023-04-27T04:29:29;99775.31;;;9.88;43.58
55317;BME280;41178;48.956;8.130;2023-04-27T04:34:31;99831.75;;;8.82;43.99
55317;BME280;41178;48.956;8.130;2023-04-27T04:39:33;99831.56;;;9.00;43.88
55317;BME280;41178;48.956;8.130;2023-04-27T04:44:35;99841.59;;;8.98;43.41
55317;BME280;41178;48.956;8.130;2023-04-27T04:49:36;99857.19;;;8.04;45.05
55317;BME280;41178;48.956;8.130;2023-04-27T04:54:38;99851.19;;;7.86;45.46
55317;BME280;41178;48.956;8.130;2023-04-27T05:05:31;99817.06;;;5.09;50.94
55317;BME280;41178;48.956;8.130;2023-04-27T05:10:32;99891.88;;;6.58;49.62
55317;BME280;41178;48.956;8.130;2023-04-27T05:15:36;99863.31;;;5.80;50.52
55317;BME280;41178;48.956;8.130;2023-04-27T05:20:37;99843.22;;;5.60;50.70
55317;BME280;41178;48.956;8.130;2023-04-27T05:25:39;99866.28;;;5.95;50.51
55317;BME280;41178;48.956;8.130;2023-04-27T05:30:44;99866.19;;;5.87;50.73
55317;BME280;41178;48.956;8.130;2023-04-27T05:35:45;99895.31;;;6.33;49.94
55317;BME280;41178;48.956;8.130;2023-04-27T05:40:55;99878.81;;;5.85;50.86
55317;BME280;41178;48.956;8.130;2023-04-27T05:45:57;99895.72;;;6.82;49.88
55317;BME280;41178;48.956;8.130;2023-04-27T05:51:02;99899.84;;;7.03;48.52
55317;BME280;41178;48.956;8.130;2023-04-27T05:56:04;99915.19;;;7.17;47.68
55317;BME280;41178;48.956;8.130;2023-04-27T06:01:07;99925.69;;;7.53;47.10
55317;BME280;41178;48.956;8.130;2023-04-27T06:06:08;99953.91;;;7.38;47.43
55317;BME280;41178;48.956;8.130;2023-04-27T06:11:10;99957.66;;;7.69;46.46
55317;BME280;41178;48.956;8.130;2023-04-27T06:16:12;99964.53;;;7.72;46.90
55317;BME280;41178;48.956;8.130;2023-04-27T06:21:13;99973.53;;;7.10;46.84
55317;BME280;41178;48.956;8.130;2023-04-27T06:26:15;99987.13;;;6.99;47.94
55317;BME280;41178;48.956;8.130;2023-04-27T06:31:17;100003.09;;;6.99;48.31
55317;BME280;41178;48.956;8.130;2023-04-27T06:36:18;99955.84;;;8.21;45.84
55317;BME280;41178;48.956;8.130;2023-04-27T06:41:24;99974.53;;;7.78;47.47
55317;BME280;41178;48.956;8.130;2023-04-27T06:46:26;99996.00;;;7.77;47.04
55317;BME280;41178;48.956;8.130;2023-04-27T06:51:28;99998.34;;;9.13;45.27
55317;BME280;41178;48.956;8.130;2023-04-27T06:56:30;99990.38;;;8.55;45.59
55317;BME280;41178;48.956;8.130;2023-04-27T07:01:31;99996.28;;;9.48;45.58
55317;BME280;41178;48.956;8.130;2023-04-27T07:06:33;100014.19;;;9.78;45.17
55317;BME280;41178;48.956;8.130;2023-04-27T07:11:35;100016.31;;;7.78;46.61
55317;BME280;41178;48.956;8.130;2023-04-27T07:16:37;100022.72;;;10.22;45.37
55317;BME280;41178;48.956;8.130;2023-04-27T07:21:39;100022.44;;;8.96;46.52
55317;BME280;41178;48.956;8.130;2023-04-27T07:26:41;100028.63;;;10.63;44.83
55317;BME280;41178;48.956;8.130;2023-04-27T07:31:43;100006.03;;;8.58;46.75
55317;BME280;41178;48.956;8.130;2023-04-27T07:36:44;100000.84;;;9.22;46.51
55317;BME280;41178;48.956;8.130;2023-04-27T07:41:46;100001.38;;;10.37;45.15
55317;BME280;41178;48.956;8.130;2023-04-27T07:46:48;99991.03;;;10.33;45.21
55317;BME280;41178;48.956;8.130;2023-04-27T07:51:50;100023.88;;;9.24;45.46
55317;BME280;41178;48.956;8.130;2023-04-27T07:56:52;99944.41;;;10.51;44.48
55317;BME280;41178;48.956;8.130;2023-04-27T08:01:54;99958.47;;;10.30;44.86
55317;BME280;41178;48.956;8.130;2023-04-27T08:07:11;99982.84;;;10.04;44.57
55317;BME280;41178;48.956;8.130;2023-04-27T08:12:13;99938.84;;;11.14;43.63
55317;BME280;41178;48.956;8.130;2023-04-27T08:17:15;99954.84;;;12.03;43.98
55317;BME280;41178;48.956;8.130;2023-04-27T08:22:18;99965.91;;;12.58;43.45
55317;BME280;41178;48.956;8.130;2023-04-27T08:27:20;99889.81;;;11.79;43.12
55317;BME280;41178;48.956;8.130;2023-04-27T08:32:22;99958.13;;;12.91;42.01
55317;BME280;41178;48.956;8.130;2023-04-27T08:37:23;99940.59;;;10.68;45.50
55317;BME280;41178;48.956;8.130;2023-04-27T08:42:25;99912.78;;;12.53;42.76
55317;BME280;41178;48.956;8.130;2023-04-27T08:47:26;99889.59;;;11.00;43.38
55317;BME280;41178;48.956;8.130;2023-04-27T08:52:47;99940.16;;;13.27;42.74
55317;BME280;41178;48.956;8.130;2023-04-27T08:57:56;99905.88;;;12.94;42.53
55317;BME280;41178;48.956;8.130;2023-04-27T09:02:58;99910.44;;;13.83;41.12
55317;BME280;41178;48.956;8.130;2023-04-27T09:08:05;99866.94;;;13.18;43.06
55317;BME280;41178;48.956;8.130;2023-04-27T09:13:08;99854.75;;;13.22;41.76
55317;BME280;41178;48.956;8.130;2023-04-27T09:18:21;99886.88;;;13.99;40.78
55317;BME280;41178;48.956;8.130;2023-04-27T09:28:31;99830.63;;;14.17;40.38
55317;BME280;41178;48.956;8.130;2023-04-27T09:33:34;99842.34;;;13.83;40.06
55317;BME280;41178;48.956;8.130;2023-04-27T09:38:36;99786.47;;;13.78;39.20
55317;BME280;41178;48.956;8.130;2023-04-27T09:43:38;99821.66;;;13.63;38.71
55317;BME280;41178;48.956;8.130;2023-04-27T09:48:41;99823.94;;;14.67;37.95
55317;BME280;41178;48.956;8.130;2023-04-27T09:53:51;99831.09;;;15.00;38.71
55317;BME280;41178;48.956;8.130;2023-04-27T09:59:09;99771.84;;;14.93;38.79
55317;BME280;41178;48.956;8.130;2023-04-27T10:04:35;99775.22;;;15.33;38.26
55317;BME280;41178;48.956;8.130;2023-04-27T10:09:44;99728.34;;;13.57;38.10
55317;BME280;41178;48.956;8.130;2023-04-27T10:14:55;99779.25;;;13.72;38.45
55317;BME280;41178;48.956;8.130;2023-04-27T10:20:01;99789.38;;;13.63;38.34
55317;BME280;41178;48.956;8.130;2023-04-27T10:30:16;99714.97;;;15.46;38.00
55317;BME280;41178;48.956;8.130;2023-04-27T10:35:19;99685.31;;;15.14;37.69
55317;BME280;41178;48.956;8.130;2023-04-27T10:40:31;99718.13;;;14.53;38.50
55317;BME280;41178;48.956;8.130;2023-04-27T10:45:33;99674.88;;;14.48;36.62
55317;BME280;41178;48.956;8.130;2023-04-27T10:50:35;99671.91;;;14.56;36.35
55317;BME280;41178;48.956;8.130;2023-04-27T10:55:37;99717.63;;;15.53;35.36
55317;BME280;41178;48.956;8.130;2023-04-27T11:06:30;99743.25;;;14.07;37.99
55317;BME280;41178;48.956;8.130;2023-04-27T11:11:33;99708.50;;;13.72;38.68
55317;BME280;41178;48.956;8.130;2023-04-27T11:16:35;99680.53;;;14.26;38.20
55317;BME280;41178;48.956;8.130;2023-04-27T11:21:37;99690.19;;;15.31;38.83
55317;BME280;41178;48.956;8.130;2023-04-27T11:26:39;99676.50;;;15.01;36.44
55317;BME280;41178;48.956;8.130;2023-04-27T11:31:44;99636.91;;;13.91;38.18
55317;BME280;41178;48.956;8.130;2023-04-27T11:37:00;99678.72;;;14.65;37.00
55317;BME280;41178;48.956;8.130;2023-04-27T11:42:27;99658.94;;;15.48;36.97
55317;BME280;41178;48.956;8.130;2023-04-27T11:47:30;99627.97;;;15.32;38.30
55317;BME280;41178;48.956;8.130;2023-04-27T11:52:35;99661.44;;;16.37;36.69
55317;BME280;41178;48.956;8.130;2023-04-27T11:57:37;99631.44;;;16.27;35.85
55317;BME280;41178;48.956;8.130;2023-04-27T12:02:40;99615.44;;;16.07;38.09
55317;BME280;41178;48.956;8.130;2023-04-27T12:07:42;99560.78;;;15.31;36.33
55317;BME280;41178;48.956;8.130;2023-04-27T12:12:44;99621.69;;;15.64;37.00
55317;BME280;41178;48.956;8.130;2023-04-27T12:17:46;99591.16;;;16.25;36.53
55317;BME280;41178;48.956;8.130;2023-04-27T12:22:48;99577.00;;;16.12;37.58
55317;BME280;41178;48.956;8.130;2023-04-27T12:27:49;99609.81;;;15.46;36.57
55317;BME280;41178;48.956;8.130;2023-04-27T12:32:52;99571.22;;;14.18;36.22
55317;BME280;41178;48.956;8.130;2023-04-27T12:37:53;99543.09;;;15.97;35.93
55317;BME280;41178;48.956;8.130;2023-04-27T12:42:55;99570.22;;;16.39;36.09
55317;BME280;41178;48.956;8.130;2023-04-27T12:48:00;99555.75;;;16.64;35.23
55317;BME280;41178;48.956;8.130;2023-04-27T12:53:04;99594.97;;;16.18;35.70
55317;BME280;41178;48.956;8.130;2023-04-27T12:58:06;99553.28;;;17.05;35.76
55317;BME280;41178;48.956;8.130;2023-04-27T13:03:08;99537.03;;;16.93;35.85
55317;BME280;41178;48.956;8.130;2023-04-27T13:08:10;99493.13;;;15.95;37.22
55317;BME280;41178;48.956;8.130;2023-04-27T13:13:11;99537.19;;;17.10;35.95
55317;BME280;41178;48.956;8.130;2023-04-27T13:18:13;99502.59;;;17.71;36.34
55317;BME280;41178;48.956;8.130;2023-04-27T13:23:15;99474.06;;;16.80;35.13
55317;BME280;41178;48.956;8.130;2023-04-27T13:28:16;99483.19;;;17.74;35.04
55317;BME280;41178;48.956;8.130;2023-04-27T13:33:18;99429.59;;;17.88;34.64
55317;BME280;41178;48.956;8.130;2023-04-27T13:38:24;99434.00;;;14.75;37.36
55317;BME280;41178;48.956;8.130;2023-04-27T13:43:25;99503.47;;;17.12;35.17
55317;BME280;41178;48.956;8.130;2023-04-27T13:48:28;99470.53;;;17.39;34.94
55317;BME280;41178;48.956;8.130;2023-04-27T13:53:29;99457.38;;;16.95;35.35
55317;BME280;41178;48.956;8.130;2023-04-27T13:58:31;99483.47;;;17.13;36.97
55317;BME280;41178;48.956;8.130;2023-04-27T14:03:34;99404.63;;;17.57;36.26
55317;BME280;41178;48.956;8.130;2023-04-27T14:08:36;99430.22;;;18.36;36.46
55317;BME280;41178;48.956;8.130;2023-04-27T14:13:38;99406.31;;;17.87;35.17
55317;BME280;41178;48.956;8.130;2023-04-27T14:18:39;99396.63;;;16.62;35.87
55317;BME280;41178;48.956;8.130;2023-04-27T14:23:41;99368.00;;;18.24;36.70
55317;BME280;41178;48.956;8.130;2023-04-27T14:28:42;99386.00;;;17.32;36.37
55317;BME280;41178;48.956;8.130;2023-04-27T14:33:44;99400.88;;;16.82;36.48
55317;BME280;41178;48.956;8.130;2023-04-27T14:38:45;99345.91;;;17.69;35.99
55317;BME280;41178;48.956;8.130;2023-04-27T14:43:47;99390.75;;;17.94;36.09
55317;BME280;41178;48.956;8.130;2023-04-27T14:48:49;99448.19;;;16.85;38.05
55317;BME280;41178;48.956;8.130;2023-04-27T14:53:51;99407.28;;;16.46;36.80
55317;BME280;41178;48.956;8.130;2023-04-27T14:58:53;99416.53;;;17.85;37.23
55317;BME280;41178;48.956;8.130;2023-04-27T15:03:55;99441.34;;;16.47;37.13
55317;BME280;41178;48.956;8.130;2023-04-27T15:08:58;99387.63;;;18.48;35.64
55317;BME280;41178;48.956;8.130;2023-04-27T15:14:00;99347.28;;;17.43;35.82
55317;BME280;41178;48.956;8.130;2023-04-27T15:19:01;99364.50;;;18.12;36.13
55317;BME280;41178;48.956;8.130;2023-04-27T15:24:04;99345.13;;;17.16;36.03
55317;BME280;41178;48.956;8.130;2023-04-27T15:29:05;99366.66;;;17.52;36.05
55317;BME280;41178;48.956;8.130;2023-04-27T15:34:07;99348.47;;;16.95;37.04
55317;BME280;41178;48.956;8.130;2023-04-27T15:39:09;99361.22;;;17.92;35.73
55317;BME280;41178;48.956;8.130;2023-04-27T15:44:11;99309.47;;;15.66;37.85
55317;BME280;41178;48.956;8.130;2023-04-27T15:49:12;99362.78;;;16.95;37.40
55317;BME280;41178;48.956;8.130;2023-04-27T15:54:16;99288.44;;;19.03;35.56
55317;BME280;41178;48.956;8.130;2023-04-27T15:59:18;99263.78;;;17.76;36.50
55317;BME280;41178;48.956;8.130;2023-04-27T16:04:19;99330.94;;;17.79;37.12
55317;BME280;41178;48.956;8.130;2023-04-27T16:09:22;99316.78;;;17.31;36.35
55317;BME280;41178;48.956;8.130;2023-04-27T16:14:23;99308.66;;;18.56;34.82
55317;BME280;41178;48.956;8.130;2023-04-27T16:19:25;99298.84;;;17.13;36.29
55317;BME280;41178;48.956;8.130;2023-04-27T16:24:28;99284.88;;;17.04;36.43
55317;BME280;41178;48.956;8.130;2023-04-27T16:29:30;99293.66;;;18.71;34.70
55317;BME280;41178;48.956;8.130;2023-04-27T16:34:32;99258.44;;;18.93;35.06
55317;BME280;41178;48.956;8.130;2023-04-27T16:39:33;99246.97;;;17.90;35.68
55317;BME280;41178;48.956;8.130;2023-04-27T16:44:36;99241.72;;;18.01;36.16
55317;BME280;41178;48.956;8.130;2023-04-27T16:49:38;99303.97;;;17.55;36.77
55317;BME280;41178;48.956;8.130;2023-04-27T16:54:39;99246.19;;;16.39;37.16
55317;BME280;41178;48.956;8.130;2023-04-27T16:59:41;99323.97;;;17.83;36.71
55317;BME280;41178;48.956;8.130;2023-04-27T17:04:43;99298.72;;;18.28;36.34
55317;BME280;41178;48.956;8.130;2023-04-27T17:09:44;99284.97;;;18.30;36.89
55317;BME280;41178;48.956;8.130;2023-04-27T17:14:46;99271.63;;;17.31;36.87
55317;BME280;41178;48.956;8.130;2023-04-27T17:19:47;99303.25;;;18.39;37.09
55317;BME280;41178;48.956;8.130;2023-04-27T17:24:49;99238.94;;;18.52;37.02
55317;BME280;41178;48.956;8.130;2023-04-27T17:29:52;99295.53;;;17.97;37.15
55317;BME280;41178;48.956;8.130;2023-04-27T17:34:54;99292.72;;;18.60;36.74
55317;BME280;41178;48.956;8.130;2023-04-27T17:39:56;99271.13;;;19.36;35.79
55317;BME280;41178;48.956;8.130;2023-04-27T17:44:57;99227.34;;;18.34;36.38
55317;BME280;41178;48.956;8.130;2023-04-27T17:49:59;99259.63;;;17.27;38.12
55317;BME280;41178;48.956;8.130;2023-04-27T17:55:00;99210.56;;;18.98;36.12
55317;BME280;41178;48.956;8.130;2023-04-27T18:00:02;99258.50;;;19.20;36.62
55317;BME280;41178;48.956;8.130;2023-04-27T18:05:04;99224.34;;;18.53;37.71
55317;BME280;41178;48.956;8.130;2023-04-27T18:10:07;99228.50;;;18.60;37.61
55317;BME280;41178;48.956;8.130;2023-04-27T18:15:09;99244.75;;;18.82;36.48
55317;BME280;41178;48.956;8.130;2023-04-27T18:20:11;99211.91;;;18.18;36.99
55317;BME280;41178;48.956;8.130;2023-04-27T18:25:12;99262.09;;;18.81;36.23
55317;BME280;41178;48.956;8.130;2023-04-27T18:30:14;99239.25;;;18.55;36.47
55317;BME280;41178;48.956;8.130;2023-04-27T18:35:16;99231.88;;;17.78;37.11
55317;BME280;41178;48.956;8.130;2023-04-27T18:40:19;99246.03;;;17.68;36.62
55317;BME280;41178;48.956;8.130;2023-04-27T18:45:21;99267.53;;;17.91;36.16
55317;BME280;41178;48.956;8.130;2023-04-27T18:50:23;99284.88;;;17.90;36.14
55317;BME280;41178;48.956;8.130;2023-04-27T18:55:24;99252.41;;;17.45;36.32
55317;BME280;41178;48.956;8.130;2023-04-27T19:00:26;99298.88;;;18.04;35.51
55317;BME280;41178;48.956;8.130;2023-04-27T19:05:29;99305.63;;;18.02;36.15
55317;BME280;41178;48.956;8.130;2023-04-27T19:10:30;99299.91;;;17.69;36.74
55317;BME280;41178;48.956;8.130;2023-04-27T19:15:32;99263.47;;;17.14;37.40
55317;BME280;41178;48.956;8.130;2023-04-27T19:20:34;99280.69;;;17.25;37.62
55317;BME280;41178;48.956;8.130;2023-04-27T19:25:36;99298.81;;;17.53;37.28
55317;BME280;41178;48.956;8.130;2023-04-27T19:30:38;99283.91;;;17.68;37.02
55317;BME280;41178;48.956;8.130;2023-04-27T19:35:40;99265.16;;;17.49;37.01
55317;BME280;41178;48.956;8.130;2023-04-27T19:40:42;99289.31;;;17.39;37.45
55317;BME280;41178;48.956;8.130;2023-04-27T19:45:44;99268.06;;;17.02;37.84
55317;BME280;41178;48.956;8.130;2023-04-27T19:50:45;99263.63;;;16.96;38.32
55317;BME280;41178;48.956;8.130;2023-04-27T19:55:47;99294.41;;;17.35;38.08
55317;BME280;41178;48.956;8.130;2023-04-27T20:00:48;99253.25;;;16.52;38.82
55317;BME280;41178;48.956;8.130;2023-04-27T20:05:50;99282.72;;;17.18;37.83
55317;BME280;41178;48.956;8.130;2023-04-27T20:10:53;99269.53;;;15.98;39.85
55317;BME280;41178;48.956;8.130;2023-04-27T20:15:54;99302.41;;;16.78;39.24
55317;BME280;41178;48.956;8.130;2023-04-27T20:20:58;99284.91;;;17.33;38.06
55317;BME280;41178;48.956;8.130;2023-04-27T20:26:02;99290.78;;;17.01;38.65
55317;BME280;41178;48.956;8.130;2023-04-27T20:31:04;99263.41;;;16.97;38.63
55317;BME280;41178;48.956;8.130;2023-04-27T20:36:05;99259.81;;;16.44;39.76
55317;BME280;41178;48.956;8.130;2023-04-27T20:41:18;99291.88;;;17.46;38.90
55317;BME280;41178;48.956;8.130;2023-04-27T20:46:22;99277.66;;;17.50;38.99
55317;BME280;41178;48.956;8.130;2023-04-27T20:51:24;99267.53;;;17.46;39.05
55317;BME280;41178;48.956;8.130;2023-04-27T20:56:26;99224.69;;;16.56;39.79
55317;BME280;41178;48.956;8.130;2023-04-27T21:01:30;99256.41;;;16.49;40.05
55317;BME280;41178;48.956;8.130;2023-04-27T21:06:32;99226.94;;;16.12;40.12
55317;BME280;41178;48.956;8.130;2023-04-27T21:11:34;99200.19;;;15.33;41.00
55317;BME280;41178;48.956;8.130;2023-04-27T21:16:36;99254.81;;;15.10;41.86
55317;BME280;41178;48.956;8.130;2023-04-27T21:21:38;99291.19;;;15.49;42.31
55317;BME280;41178;48.956;8.130;2023-04-27T21:26:39;99267.66;;;14.52;44.49
55317;BME280;41178;48.956;8.130;2023-04-27T21:31:42;99284.19;;;14.56;44.37
55317;BME280;41178;48.956;8.130;2023-04-27T21:36:44;99269.06;;;16.01;42.26
55317;BME280;41178;48.956;8.130;2023-04-27T21:41:45;99193.13;;;12.95;47.88
55317;BME280;41178;48.956;8.130;2023-04-27T21:46:47;99245.13;;;14.03;46.30
55317;BME280;41178;48.956;8.130;2023-04-27T21:51:48;99246.38;;;13.50;46.88
55317;BME280;41178;48.956;8.130;2023-04-27T21:56:50;99286.28;;;13.78;46.10
55317;BME280;41178;48.956;8.130;2023-04-27T22:01:52;99273.94;;;14.90;44.43
55317;BME280;41178;48.956;8.130;2023-04-27T22:06:54;99283.16;;;13.81;45.67
55317;BME280;41178;48.956;8.130;2023-04-27T22:11:55;99205.88;;;12.61;46.75
55317;BME280;41178;48.956;8.130;2023-04-27T22:16:57;99258.84;;;13.38;45.01
55317;BME280;41178;48.956;8.130;2023-04-27T22:21:58;99257.16;;;12.98;46.41
55317;BME280;41178;48.956;8.130;2023-04-27T22:27:00;99283.66;;;13.40;45.44
55317;BME280;41178;48.956;8.130;2023-04-27T22:32:02;99300.16;;;14.32;44.97
55317;BME280;41178;48.956;8.130;2023-04-27T22:37:04;99227.69;;;13.23;45.47
55317;BME280;41178;48.956;8.130;2023-04-27T22:42:07;99305.69;;;14.19;45.72
55317;BME280;41178;48.956;8.130;2023-04-27T22:47:08;99304.81;;;13.61;46.49
55317;BME280;41178;48.956;8.130;2023-04-27T22:52:11;99306.13;;;14.59;44.24
55317;BME280;41178;48.956;8.130;2023-04-27T22:57:12;99266.75;;;14.84;43.21
55317;BME280;41178;48.956;8.130;2023-04-27T23:02:14;99264.59;;;13.03;46.85
55317;BME280;41178;48.956;8.130;2023-04-27T23:07:16;99277.53;;;13.13;47.62
55317;BME280;41178;48.956;8.130;2023-04-27T23:12:18;99275.25;;;12.58;48.68
55317;BME280;41178;48.956;8.130;2023-04-27T23:17:21;99303.53;;;13.71;47.48
55317;BME280;41178;48.956;8.130;2023-04-27T23:22:23;99286.56;;;12.80;48.03
55317;BME280;41178;48.956;8.130;2023-04-27T23:27:25;99267.63;;;12.14;50.03
55317;BME280;41178;48.956;8.130;2023-04-27T23:32:27;99275.25;;;12.37;48.86
55317;BME280;41178;48.956;8.130;2023-04-27T23:37:28;99301.22;;;12.77;48.89
55317;BME280;41178;48.956;8.130;2023-04-27T23:42:30;99297.13;;;12.68;47.71
55317;BME280;41178;48.956;8.130;2023-04-27T23:47:31;99309.75;;;12.47;48.84
55317;BME280;41178;48.956;8.130;2023-04-27T23:52:34;99260.63;;;11.73;50.31
55317;BME280;41178;48.956;8.130;2023-04-27T23:57:36;99296.50;;;11.79;50.77
